Time;durP1;ratioP1;P1;durP2;ratioP2;P2;SDS_P1;SDS_P2;PMS_P1;PMS_P2;Temp;Humidity;BMP_temperature;BMP_pressure;BME280_temperature;BME280_humidity;BME280_pressure;Samples;Min_cycle;Max_cycle;Signal;HPM_P1;HPM_P2
2023/12/29 00:00:44;;;;;;;10.57;2.47;;;11.60;99.90;;;;;;5032921;28;20644;-70
2023/12/29 00:03:12;;;;;;;8.70;2.20;;;11.60;99.90;;;;;;5029514;28;20222;-71
2023/12/29 00:05:39;;;;;;;10.85;3.08;;;11.50;99.90;;;;;;5026456;28;20537;-71
2023/12/29 00:08:06;;;;;;;6.57;2.20;;;11.60;99.90;;;;;;5031920;28;20311;-73
2023/12/29 00:10:33;;;;;;;6.15;2.47;;;11.50;99.90;;;;;;5026986;28;20201;-72
2023/12/29 00:13:00;;;;;;;6.85;2.33;;;11.60;99.90;;;;;;5031379;28;20201;-73
2023/12/29 00:15:29;;;;;;;8.18;2.15;;;11.60;99.90;;;;;;5031274;28;20232;-73
2023/12/29 00:17:56;;;;;;;11.95;3.17;;;11.50;99.90;;;;;;5031197;28;20675;-73
2023/12/29 00:20:23;;;;;;;8.07;3.38;;;11.50;99.90;;;;;;5031065;28;20236;-74
2023/12/29 00:22:50;;;;;;;8.48;2.45;;;11.60;99.90;;;;;;5031560;28;20220;-71
2023/12/29 00:25:17;;;;;;;11.15;3.42;;;11.50;99.90;;;;;;5034592;28;20236;-73
2023/12/29 00:27:44;;;;;;;9.23;3.10;;;11.40;99.90;;;;;;5031542;28;20252;-72
2023/12/29 00:30:12;;;;;;;9.25;2.75;;;11.50;99.90;;;;;;5031900;28;20204;-73
2023/12/29 00:32:40;;;;;;;8.13;2.72;;;11.40;99.90;;;;;;5031540;28;20205;-73
2023/12/29 00:35:08;;;;;;;5.60;2.33;;;11.40;99.90;;;;;;5032145;28;20663;-72
2023/12/29 00:37:34;;;;;;;7.63;3.20;;;11.40;99.90;;;;;;5034043;28;20271;-72
2023/12/29 00:40:01;;;;;;;7.28;3.47;;;11.40;99.90;;;;;;5032076;28;20221;-72
2023/12/29 00:42:28;;;;;;;3.97;2.00;;;11.40;99.90;;;;;;5032115;28;20230;-73
2023/12/29 00:44:55;;;;;;;5.93;2.65;;;11.30;99.90;;;;;;5025607;28;20620;-70
2023/12/29 00:47:23;;;;;;;8.38;2.80;;;11.30;99.90;;;;;;5035141;28;20304;-71
2023/12/29 00:49:51;;;;;;;10.38;3.30;;;11.30;99.90;;;;;;5023827;28;20209;-73
2023/12/29 00:52:19;;;;;;;4.10;2.72;;;11.30;99.90;;;;;;5022530;28;20275;-71
2023/12/29 00:54:46;;;;;;;6.65;2.50;;;11.30;99.90;;;;;;5026971;28;20581;-74
2023/12/29 00:57:13;;;;;;;5.63;2.10;;;11.20;99.90;;;;;;5029018;28;20230;-71
2023/12/29 00:59:40;;;;;;;9.10;3.25;;;11.20;99.90;;;;;;5031245;28;20306;-72
2023/12/29 01:02:07;;;;;;;5.82;2.47;;;11.20;99.90;;;;;;5026510;28;20271;-72
2023/12/29 01:04:35;;;;;;;11.40;3.60;;;11.30;99.90;;;;;;5026866;28;20293;-73
2023/12/29 01:07:03;;;;;;;5.10;2.25;;;11.20;99.90;;;;;;5038085;28;20683;-72
2023/12/29 01:09:30;;;;;;;7.68;2.60;;;11.20;99.90;;;;;;5027138;28;20228;-73
2023/12/29 01:11:57;;;;;;;2.92;1.75;;;11.20;99.90;;;;;;5031757;28;20239;-72
2023/12/29 01:14:24;;;;;;;12.48;2.92;;;11.10;99.90;;;;;;5030422;28;20229;-74
2023/12/29 01:16:51;;;;;;;6.15;2.20;;;11.20;99.90;;;;;;5027755;28;20228;-71
2023/12/29 01:19:18;;;;;;;6.18;2.75;;;11.20;99.90;;;;;;5033051;28;20262;-73
2023/12/29 01:21:45;;;;;;;5.43;2.25;;;11.20;99.90;;;;;;5029670;28;20596;-73
2023/12/29 01:24:13;;;;;;;5.95;2.85;;;11.20;99.90;;;;;;5025117;28;20340;-71
2023/12/29 01:26:40;;;;;;;10.80;3.08;;;11.10;99.90;;;;;;5032223;28;20270;-73
2023/12/29 01:29:07;;;;;;;7.47;2.60;;;11.10;99.90;;;;;;5034327;28;20258;-74
2023/12/29 01:31:34;;;;;;;8.75;2.17;;;11.00;99.90;;;;;;5025906;28;20204;-72
2023/12/29 01:34:01;;;;;;;3.70;2.03;;;10.90;99.90;;;;;;5030233;28;20201;-70
2023/12/29 01:36:28;;;;;;;7.75;3.55;;;10.90;99.90;;;;;;5029750;28;20201;-70
2023/12/29 01:38:55;;;;;;;4.15;2.20;;;10.90;99.90;;;;;;5032249;28;20329;-70
2023/12/29 01:41:24;;;;;;;5.80;2.20;;;10.80;99.90;;;;;;5028707;28;20237;-73
2023/12/29 01:44:20;;;;;;;8.48;2.53;;;10.90;99.90;;;;;;5034249;28;20290;-72
2023/12/29 01:46:48;;;;;;;11.82;2.65;;;10.90;99.90;;;;;;5027755;28;20253;-72
2023/12/29 01:49:17;;;;;;;7.38;3.13;;;10.90;99.90;;;;;;5024850;28;20227;-70
2023/12/29 01:51:45;;;;;;;8.82;3.00;;;10.80;99.90;;;;;;5029854;28;20251;-71
2023/12/29 01:54:13;;;;;;;7.93;2.30;;;10.70;99.90;;;;;;5024938;28;20599;-72
2023/12/29 01:56:42;;;;;;;7.90;2.40;;;10.50;99.90;;;;;;5035899;28;20225;-69
2023/12/29 01:59:09;;;;;;;8.32;1.92;;;10.50;99.90;;;;;;5025488;28;20213;-72
2023/12/29 02:01:38;;;;;;;10.82;2.30;;;10.40;99.90;;;;;;5033091;28;20197;-72
2023/12/29 02:04:06;;;;;;;5.38;1.90;;;10.40;99.90;;;;;;5024274;28;20256;-70
2023/12/29 02:06:48;;;;;;;7.00;1.90;;;10.40;99.90;;;;;;5036318;28;20252;-71
2023/12/29 02:09:18;;;;;;;3.90;2.08;;;10.40;99.90;;;;;;5034003;28;20209;-75
2023/12/29 02:11:47;;;;;;;10.52;3.10;;;10.40;99.90;;;;;;5033889;28;20208;-70
2023/12/29 02:14:15;;;;;;;7.43;3.65;;;10.30;99.90;;;;;;5033806;28;20255;-72
2023/12/29 02:16:48;;;;;;;12.70;3.95;;;10.40;99.90;;;;;;5038010;28;20694;-72
2023/12/29 02:19:26;;;;;;;5.03;2.78;;;10.30;99.90;;;;;;5009742;28;20636;-73
2023/12/29 02:21:53;;;;;;;12.38;4.57;;;10.40;99.90;;;;;;5016537;28;20208;-72
2023/12/29 02:24:20;;;;;;;6.07;2.30;;;10.40;99.90;;;;;;5025573;28;20233;-73
2023/12/29 02:26:54;;;;;;;8.05;3.08;;;10.40;99.90;;;;;;5035088;28;20255;-70
2023/12/29 02:29:25;;;;;;;12.13;3.10;;;10.40;99.90;;;;;;5032720;28;20543;-71
2023/12/29 02:31:55;;;;;;;5.05;2.58;;;10.40;99.90;;;;;;5024590;28;20608;-69
2023/12/29 02:34:24;;;;;;;5.05;2.70;;;10.40;99.90;;;;;;5032401;28;20201;-70
2023/12/29 02:36:52;;;;;;;6.47;2.28;;;10.30;99.90;;;;;;5029306;28;20314;-70
2023/12/29 02:39:19;;;;;;;9.40;3.90;;;10.30;99.90;;;;;;5031779;28;20213;-70
2023/12/29 02:41:48;;;;;;;8.38;3.08;;;10.30;99.90;;;;;;5035768;28;20247;-71
2023/12/29 02:44:15;;;;;;;7.40;3.97;;;10.30;99.90;;;;;;5028664;28;20719;-70
2023/12/29 02:46:55;;;;;;;7.65;2.90;;;10.30;99.90;;;;;;5048310;22;20754;-83
2023/12/29 02:49:23;;;;;;;8.77;3.15;;;10.30;99.90;;;;;;5056776;28;20204;-83
2023/12/29 02:51:51;;;;;;;9.70;2.70;;;10.30;99.90;;;;;;5057425;28;20255;-82
2023/12/29 02:54:19;;;;;;;5.47;2.20;;;10.40;99.90;;;;;;5045744;28;20208;-83
2023/12/29 02:56:48;;;;;;;10.63;3.60;;;10.30;99.90;;;;;;5050854;28;20218;-83
2023/12/29 02:59:28;;;;;;;7.30;3.03;;;10.20;99.90;;;;;;5044153;28;20264;-83
2023/12/29 03:02:00;;;;;;;6.63;2.95;;;10.30;99.90;;;;;;5046413;28;20220;-83
2023/12/29 03:04:35;;;;;;;6.40;3.13;;;10.30;99.90;;;;;;5044091;28;20225;-84
2023/12/29 03:07:07;;;;;;;6.82;2.53;;;10.20;99.90;;;;;;5036321;28;20201;-82
2023/12/29 03:09:38;;;;;;;9.93;3.17;;;10.20;99.90;;;;;;5041845;28;20209;-83
2023/12/29 03:12:10;;;;;;;7.00;3.35;;;10.20;99.90;;;;;;5045772;28;20289;-83
2023/12/29 03:14:39;;;;;;;12.10;4.15;;;10.20;99.90;;;;;;5044536;28;20205;-84
2023/12/29 03:17:12;;;;;;;9.93;3.30;;;10.20;99.90;;;;;;5044850;28;20201;-84
2023/12/29 03:19:44;;;;;;;6.00;3.47;;;10.10;99.90;;;;;;5044618;28;20674;-84
2023/12/29 03:22:13;;;;;;;7.35;3.35;;;10.00;99.90;;;;;;5044743;28;20264;-83
2023/12/29 03:24:45;;;;;;;7.15;2.60;;;9.90;99.90;;;;;;5045295;28;20333;-83
2023/12/29 03:27:25;;;;;;;9.02;3.92;;;9.80;99.90;;;;;;5045882;28;20240;-83
2023/12/29 03:29:59;;;;;;;6.40;3.25;;;10.00;99.90;;;;;;5035810;28;20655;-83
2023/12/29 03:32:31;;;;;;;8.15;3.15;;;9.90;99.90;;;;;;5043842;28;20224;-83
2023/12/29 03:35:00;;;;;;;8.38;3.47;;;9.90;99.90;;;;;;5046863;28;20295;-83
2023/12/29 03:37:31;;;;;;;10.25;3.33;;;9.90;99.90;;;;;;5049540;28;20192;-83
2023/12/29 03:39:59;;;;;;;10.98;3.20;;;10.00;99.90;;;;;;5041645;28;20326;-83
2023/12/29 03:42:35;;;;;;;14.77;2.78;;;9.90;99.90;;;;;;5044913;28;20228;-82
2023/12/29 03:45:05;;;;;;;10.70;3.50;;;10.00;99.90;;;;;;5027822;28;20663;-84
2023/12/29 03:47:33;;;;;;;8.50;3.10;;;10.10;99.90;;;;;;5049407;28;20208;-83
2023/12/29 03:50:24;;;;;;;6.68;3.08;;;10.10;99.90;;;;;;5048518;28;20231;-83
2023/12/29 03:52:52;;;;;;;3.22;1.48;;;10.20;99.90;;;;;;5052202;28;20211;-83
2023/12/29 03:55:37;;;;;;;1.77;0.77;;;9.90;99.90;;;;;;5050689;28;20196;-83
2023/12/29 03:58:06;;;;;;;1.85;1.00;;;9.50;99.90;;;;;;5051692;28;20205;-83
2023/12/29 04:00:41;;;;;;;2.10;0.90;;;9.10;99.90;;;;;;5052372;28;20292;-82
2023/12/29 04:03:18;;;;;;;3.28;1.27;;;9.00;99.90;;;;;;5051252;28;20269;-83
2023/12/29 04:05:54;;;;;;;8.23;1.17;;;8.60;99.90;;;;;;5051460;28;20216;-83
2023/12/29 04:08:23;;;;;;;3.78;1.60;;;8.40;99.90;;;;;;5034936;28;20252;-82
2023/12/29 04:10:52;;;;;;;7.32;1.90;;;8.20;99.90;;;;;;5053632;28;20229;-81
2023/12/29 04:13:36;;;;;;;4.15;1.38;;;8.30;99.90;;;;;;5055385;28;20200;-81
2023/12/29 04:16:08;;;;;;;3.25;1.23;;;8.30;99.90;;;;;;5055800;28;20251;-82
2023/12/29 04:18:45;;;;;;;8.75;2.35;;;8.40;99.90;;;;;;5046551;28;20181;-82
2023/12/29 04:21:27;;;;;;;5.22;1.83;;;8.40;99.90;;;;;;5048138;28;20223;-83
2023/12/29 04:27:51;;;;;;;2.65;1.35;;;8.30;99.90;;;;;;5042773;28;20201;-82
2023/12/29 04:30:23;;;;;;;7.85;1.77;;;8.50;99.90;;;;;;5043129;28;20240;-83
2023/12/29 04:35:48;;;;;;;6.30;1.70;;;8.70;99.90;;;;;;5033924;28;20247;-82
2023/12/29 04:43:58;;;;;;;4.03;1.75;;;9.10;99.90;;;;;;5044558;28;20264;-83
2023/12/29 04:46:36;;;;;;;6.43;2.35;;;9.50;99.90;;;;;;5050020;28;20208;-82
2023/12/29 04:49:07;;;;;;;8.48;2.17;;;9.70;99.90;;;;;;5050149;28;20624;-83
2023/12/29 04:51:35;;;;;;;7.70;2.20;;;9.80;99.90;;;;;;5058732;28;20223;-82
2023/12/29 04:54:05;;;;;;;7.85;2.70;;;10.30;99.90;;;;;;5051922;28;20213;-82
2023/12/29 04:56:36;;;;;;;5.07;2.30;;;10.40;99.90;;;;;;5061218;28;20219;-81
2023/12/29 04:59:05;;;;;;;12.07;2.60;;;10.50;99.90;;;;;;5053301;28;20204;-81
2023/12/29 05:01:46;;;;;;;5.10;2.13;;;10.60;99.90;;;;;;5058654;28;20205;-82
2023/12/29 05:04:14;;;;;;;6.60;2.25;;;10.60;99.90;;;;;;5054976;28;20232;-82
2023/12/29 05:06:43;;;;;;;6.97;2.00;;;10.60;99.90;;;;;;5038021;28;20200;-82
2023/12/29 05:09:17;;;;;;;8.80;2.00;;;10.50;99.90;;;;;;5053471;28;20196;-82
2023/12/29 05:11:44;;;;;;;6.63;2.28;;;10.70;99.90;;;;;;5043250;28;20220;-82
2023/12/29 05:14:13;;;;;;;3.97;2.38;;;10.60;99.90;;;;;;5048649;28;20261;-83
2023/12/29 05:16:43;;;;;;;8.32;2.83;;;10.60;99.90;;;;;;5052272;28;20218;-83
2023/12/29 05:19:18;;;;;;;2.88;2.20;;;10.70;99.90;;;;;;5050940;28;20227;-83
2023/12/29 05:21:52;;;;;;;6.72;2.10;;;10.50;99.90;;;;;;5047863;28;20647;-82
2023/12/29 05:24:25;;;;;;;9.27;2.50;;;10.70;99.90;;;;;;5051960;28;20243;-83
2023/12/29 05:26:53;;;;;;;6.95;2.50;;;10.60;99.90;;;;;;5044831;28;20209;-83
2023/12/29 05:29:21;;;;;;;7.88;2.55;;;10.60;99.90;;;;;;5049957;28;20278;-83
2023/12/29 05:31:52;;;;;;;7.05;1.90;;;10.50;99.90;;;;;;5041593;28;20228;-83
2023/12/29 05:34:19;;;;;;;10.63;2.10;;;10.50;99.90;;;;;;5050330;28;20216;-83
2023/12/29 05:36:47;;;;;;;7.85;2.75;;;10.40;99.90;;;;;;5042419;28;20209;-83
2023/12/29 05:39:16;;;;;;;13.00;3.00;;;10.50;99.90;;;;;;5047030;28;20205;-82
2023/12/29 05:41:44;;;;;;;6.97;3.40;;;10.50;99.90;;;;;;5044758;28;20235;-83
2023/12/29 05:44:14;;;;;;;5.32;3.28;;;10.50;99.90;;;;;;5042081;28;20217;-81
2023/12/29 05:46:47;;;;;;;8.45;3.35;;;10.50;99.90;;;;;;5044923;28;20221;-82
2023/12/29 05:49:18;;;;;;;5.43;2.13;;;10.50;99.90;;;;;;5047259;28;20231;-83
2023/12/29 05:51:49;;;;;;;13.85;3.38;;;10.50;99.90;;;;;;5047015;28;20225;-82
2023/12/29 05:54:17;;;;;;;7.35;2.20;;;10.50;99.90;;;;;;5048356;28;20231;-82
2023/12/29 05:56:46;;;;;;;8.00;2.10;;;10.50;99.90;;;;;;5043554;28;20212;-81
2023/12/29 05:59:16;;;;;;;9.70;2.65;;;10.50;99.90;;;;;;5051652;28;20203;-82
2023/12/29 06:01:44;;;;;;;11.85;3.03;;;10.50;99.90;;;;;;5058593;28;20234;-80
2023/12/29 06:07:15;;;;;;;6.65;2.72;;;10.60;99.90;;;;;;5046512;28;20252;-82
2023/12/29 06:09:48;;;;;;;7.00;3.28;;;10.60;99.90;;;;;;5034397;28;20208;-82
2023/12/29 06:12:15;;;;;;;12.15;3.10;;;10.60;99.90;;;;;;5038874;28;20251;-82
2023/12/29 06:14:47;;;;;;;18.05;3.50;;;10.70;99.90;;;;;;5048119;28;20208;-83
2023/12/29 06:17:19;;;;;;;13.32;4.63;;;10.60;99.90;;;;;;5056231;28;20192;-83
2023/12/29 06:19:50;;;;;;;7.82;4.28;;;10.50;99.90;;;;;;5062725;28;20185;-83
2023/12/29 06:22:18;;;;;;;11.00;3.50;;;10.50;99.90;;;;;;5058598;28;20219;-83
2023/12/29 06:24:47;;;;;;;7.88;3.28;;;10.50;99.90;;;;;;5060772;28;20219;-82
2023/12/29 06:27:16;;;;;;;15.20;4.00;;;10.50;99.90;;;;;;5062766;28;20198;-82
2023/12/29 06:29:44;;;;;;;13.30;3.67;;;10.50;99.90;;;;;;5059777;28;20188;-82
2023/12/29 06:32:11;;;;;;;9.85;4.85;;;10.50;99.90;;;;;;5057322;28;20212;-82
2023/12/29 06:34:38;;;;;;;10.57;3.10;;;10.50;99.90;;;;;;5058092;28;20200;-82
2023/12/29 06:37:08;;;;;;;9.10;2.85;;;10.40;99.90;;;;;;5053934;28;20184;-82
2023/12/29 06:39:38;;;;;;;11.60;3.25;;;10.50;99.90;;;;;;5054267;28;20185;-82
2023/12/29 06:42:08;;;;;;;6.35;3.78;;;10.50;99.90;;;;;;5042508;28;20225;-81
2023/12/29 06:44:38;;;;;;;10.82;4.00;;;10.40;99.90;;;;;;5044479;28;20213;-82
2023/12/29 06:47:09;;;;;;;10.43;3.08;;;10.40;99.90;;;;;;5041257;28;20299;-82
2023/12/29 06:49:42;;;;;;;13.15;3.03;;;10.40;99.90;;;;;;5043393;28;20204;-82
2023/12/29 06:52:12;;;;;;;11.57;3.05;;;10.40;99.90;;;;;;5042401;28;20221;-82
2023/12/29 06:54:43;;;;;;;11.55;2.35;;;10.40;99.90;;;;;;5032077;28;20209;-83
2023/12/29 06:57:14;;;;;;;9.85;3.42;;;10.50;99.90;;;;;;5043778;28;20204;-83
2023/12/29 06:59:46;;;;;;;14.10;2.55;;;10.50;99.90;;;;;;5037700;28;20259;-83
2023/12/29 07:02:13;;;;;;;9.07;2.90;;;10.50;99.90;;;;;;5047805;28;20217;-83
2023/12/29 07:04:48;;;;;;;10.52;2.70;;;10.50;99.90;;;;;;5046322;28;20228;-82
2023/12/29 07:07:16;;;;;;;9.95;3.00;;;10.50;99.90;;;;;;5044160;28;20699;-82
2023/12/29 07:09:49;;;;;;;22.42;3.63;;;10.50;99.90;;;;;;5039400;28;20205;-83
2023/12/29 07:12:20;;;;;;;7.20;2.05;;;10.40;99.90;;;;;;5045011;28;20267;-82
2023/12/29 07:14:52;;;;;;;20.77;2.60;;;10.50;99.90;;;;;;5037913;28;20204;-83
2023/12/29 07:17:26;;;;;;;11.68;2.78;;;10.50;99.90;;;;;;5043625;28;20580;-82
2023/12/29 07:22:42;;;;;;;7.90;3.05;;;10.40;99.90;;;;;;5037296;28;20208;-82
2023/12/29 07:25:23;;;;;;;11.05;3.20;;;10.50;99.90;;;;;;5045214;28;20235;-83
2023/12/29 07:30:45;;;;;;;11.10;3.40;;;10.40;99.90;;;;;;5042959;28;20239;-82
2023/12/29 07:33:12;;;;;;;9.98;3.80;;;10.30;99.90;;;;;;5042264;28;20205;-83
2023/12/29 07:35:49;;;;;;;10.90;3.97;;;10.30;99.90;;;;;;5036925;28;20269;-83
2023/12/29 07:38:22;;;;;;;13.05;2.95;;;10.30;99.90;;;;;;5042385;28;20232;-83
2023/12/29 07:40:50;;;;;;;8.40;3.67;;;10.30;99.90;;;;;;5048653;28;20248;-83
2023/12/29 07:43:18;;;;;;;12.63;4.00;;;10.40;99.90;;;;;;5054949;28;20192;-82
2023/12/29 07:45:55;;;;;;;10.23;2.90;;;10.40;99.90;;;;;;5054098;28;20235;-82
2023/12/29 07:48:25;;;;;;;13.13;3.97;;;10.40;99.90;;;;;;5058410;28;20223;-83
2023/12/29 07:50:52;;;;;;;11.25;3.85;;;10.30;99.90;;;;;;5049874;28;20232;-83
2023/12/29 07:53:21;;;;;;;14.73;3.30;;;10.30;99.90;;;;;;5045849;28;20192;-84
2023/12/29 07:55:52;;;;;;;14.18;2.85;;;10.30;99.90;;;;;;5037785;28;20226;-84
2023/12/29 07:58:22;;;;;;;19.13;3.55;;;10.20;99.90;;;;;;5049110;28;20209;-82
2023/12/29 08:00:51;;;;;;;15.32;4.80;;;10.30;99.90;;;;;;5044249;28;20236;-82
2023/12/29 08:03:18;;;;;;;14.07;3.78;;;10.30;99.90;;;;;;5042172;28;20204;-83
2023/12/29 08:05:46;;;;;;;15.30;5.25;;;10.40;99.90;;;;;;5042955;28;20232;-83
2023/12/29 08:08:14;;;;;;;10.30;3.08;;;10.40;99.90;;;;;;5053618;28;20275;-83
2023/12/29 08:10:47;;;;;;;12.50;5.05;;;10.50;99.90;;;;;;5050576;28;20313;-85
2023/12/29 08:13:27;;;;;;;14.55;3.10;;;10.40;99.90;;;;;;5051204;28;20200;-82
2023/12/29 08:15:54;;;;;;;7.57;2.50;;;10.20;99.90;;;;;;5041494;28;20283;-83
2023/12/29 08:18:25;;;;;;;9.75;3.72;;;10.10;99.90;;;;;;5056954;28;20200;-83
2023/12/29 08:23:35;;;;;;;7.78;3.38;;;9.90;99.90;;;;;;5048472;28;20243;-82
2023/12/29 08:26:15;;;;;;;10.90;4.13;;;10.10;99.90;;;;;;5060735;28;20262;-83
2023/12/29 08:28:45;;;;;;;13.45;4.93;;;10.10;99.90;;;;;;5054806;28;20215;-84
2023/12/29 08:31:16;;;;;;;10.07;4.43;;;10.10;99.90;;;;;;5056700;28;20228;-83
2023/12/29 08:33:51;;;;;;;10.90;3.90;;;10.10;99.90;;;;;;5042192;28;20239;-82
2023/12/29 08:36:30;;;;;;;10.90;3.85;;;10.20;99.90;;;;;;5046132;28;20207;-82
2023/12/29 08:39:06;;;;;;;12.90;3.72;;;10.20;99.90;;;;;;5049139;28;20276;-82
2023/12/29 08:41:36;;;;;;;16.80;4.50;;;10.00;99.90;;;;;;5043563;28;20219;-84
2023/12/29 08:44:05;;;;;;;15.82;4.53;;;10.20;99.90;;;;;;5046966;28;20575;-82
2023/12/29 08:46:33;;;;;;;14.18;4.57;;;10.20;99.90;;;;;;5048329;28;20655;-82
2023/12/29 08:49:00;;;;;;;12.40;3.53;;;10.20;99.90;;;;;;5041088;28;20216;-84
2023/12/29 08:51:28;;;;;;;9.13;2.90;;;9.90;99.90;;;;;;5047364;28;20650;-83
2023/12/29 08:53:56;;;;;;;3.80;2.45;;;9.60;99.90;;;;;;5061530;28;20228;-83
2023/12/29 08:56:25;;;;;;;7.80;1.60;;;9.40;99.90;;;;;;5045201;28;20703;-84
2023/12/29 08:58:57;;;;;;;4.03;1.25;;;9.10;99.90;;;;;;5051266;28;20212;-83
2023/12/29 09:01:26;;;;;;;2.90;1.52;;;9.00;99.90;;;;;;5049335;28;20267;-83
2023/12/29 09:03:53;;;;;;;9.52;2.25;;;8.80;99.90;;;;;;5048731;28;20641;-84
2023/12/29 09:06:23;;;;;;;4.35;1.58;;;8.70;99.90;;;;;;5051143;28;20276;-84
2023/12/29 09:08:58;;;;;;;7.22;3.60;;;8.70;99.90;;;;;;5050493;28;20204;-84
2023/12/29 09:11:32;;;;;;;7.90;1.65;;;8.60;99.90;;;;;;5051932;28;20291;-83
2023/12/29 09:14:01;;;;;;;3.67;1.77;;;8.70;99.90;;;;;;5051923;28;20718;-83
2023/12/29 09:16:40;;;;;;;4.65;1.95;;;8.70;99.90;;;;;;5045307;28;20217;-83
2023/12/29 09:19:09;;;;;;;9.05;2.33;;;8.70;99.90;;;;;;5049125;28;20241;-83
2023/12/29 09:21:39;;;;;;;5.18;2.15;;;8.70;99.90;;;;;;5047367;28;20216;-83
2023/12/29 09:24:12;;;;;;;11.30;2.72;;;8.70;99.90;;;;;;5045031;28;20201;-82
2023/12/29 09:26:42;;;;;;;6.65;2.03;;;8.70;99.90;;;;;;5058016;28;20200;-83
2023/12/29 09:29:15;;;;;;;3.65;2.38;;;8.60;99.90;;;;;;5054121;28;20198;-83
2023/12/29 09:31:47;;;;;;;12.98;3.20;;;8.60;99.90;;;;;;5045472;28;20228;-85
2023/12/29 09:34:17;;;;;;;4.65;2.95;;;8.60;99.90;;;;;;5054375;28;20188;-83
2023/12/29 09:36:47;;;;;;;5.45;2.58;;;8.70;99.90;;;;;;5040489;28;20261;-83
2023/12/29 09:39:22;;;;;;;10.30;3.33;;;8.70;99.90;;;;;;5054193;28;20210;-82
2023/12/29 09:41:53;;;;;;;4.60;2.30;;;8.70;99.90;;;;;;5052340;28;20244;-83
2023/12/29 09:44:28;;;;;;;8.00;2.80;;;8.80;99.90;;;;;;5057741;28;20189;-83
2023/12/29 09:46:58;;;;;;;7.50;2.13;;;8.70;99.90;;;;;;5058993;28;20270;-83
2023/12/29 09:49:34;;;;;;;7.40;2.72;;;8.90;99.90;;;;;;5058478;28;20200;-84
2023/12/29 09:52:08;;;;;;;9.25;2.80;;;8.90;99.90;;;;;;5052265;28;20266;-85
2023/12/29 09:54:44;;;;;;;5.22;1.70;;;9.00;99.90;;;;;;5050659;28;20204;-82
2023/12/29 09:57:21;;;;;;;7.85;2.08;;;9.10;99.90;;;;;;5053866;28;20204;-82
2023/12/29 09:59:52;;;;;;;10.82;2.70;;;9.10;99.90;;;;;;5053011;28;20192;-82
2023/12/29 10:02:24;;;;;;;11.50;3.42;;;9.20;99.90;;;;;;5057747;28;20216;-83
2023/12/29 10:04:57;;;;;;;6.85;2.80;;;9.40;99.90;;;;;;5054157;28;20387;-83
2023/12/29 10:07:30;;;;;;;8.88;2.85;;;9.50;99.90;;;;;;5053518;28;20208;-82
2023/12/29 10:10:03;;;;;;;12.85;3.20;;;9.60;99.90;;;;;;5037838;28;20221;-82
2023/12/29 10:12:35;;;;;;;9.73;2.88;;;9.60;99.90;;;;;;5044093;28;20248;-84
2023/12/29 10:15:17;;;;;;;12.65;4.65;;;9.70;99.90;;;;;;5043333;28;20299;-83
2023/12/29 10:18:02;;;;;;;8.30;2.40;;;9.70;99.90;;;;;;5048315;28;20212;-84
2023/12/29 10:20:43;;;;;;;9.13;3.10;;;9.70;99.90;;;;;;5047215;28;20220;-83
2023/12/29 10:23:14;;;;;;;12.38;2.97;;;9.70;99.90;;;;;;5048425;28;20300;-84
2023/12/29 10:25:48;;;;;;;13.93;3.45;;;9.60;99.90;;;;;;5035325;28;20311;-83
2023/12/29 10:28:17;;;;;;;10.40;3.08;;;9.60;99.90;;;;;;5052159;28;20207;-84
2023/12/29 10:30:47;;;;;;;9.75;5.80;;;9.40;99.90;;;;;;5047257;28;20229;-83
2023/12/29 10:33:24;;;;;;;6.07;2.40;;;9.30;99.90;;;;;;5041546;28;20652;-84
2023/12/29 10:36:07;;;;;;;4.05;2.17;;;9.10;99.90;;;;;;5041058;28;20220;-84
2023/12/29 10:38:34;;;;;;;5.10;1.17;;;8.90;99.90;;;;;;5047274;28;20216;-83
2023/12/29 10:41:17;;;;;;;7.18;1.75;;;8.90;99.90;;;;;;5052123;28;20780;-83
2023/12/29 10:43:51;;;;;;;3.03;1.48;;;8.80;99.90;;;;;;5052781;28;20295;-83
2023/12/29 10:46:19;;;;;;;4.78;1.50;;;8.70;99.90;;;;;;5048006;28;20726;-83
2023/12/29 10:48:48;;;;;;;2.25;1.23;;;8.60;99.90;;;;;;5050530;28;20247;-84
2023/12/29 10:51:15;;;;;;;2.80;1.50;;;8.50;99.90;;;;;;5042848;28;20224;-83
2023/12/29 10:53:56;;;;;;;9.63;2.08;;;8.60;99.90;;;;;;5048576;28;20200;-83
2023/12/29 10:56:24;;;;;;;7.13;1.63;;;8.50;99.90;;;;;;5046921;28;20193;-84
2023/12/29 10:59:02;;;;;;;6.55;1.73;;;8.50;99.90;;;;;;5041578;28;20260;-83
2023/12/29 11:01:36;;;;;;;6.97;2.70;;;8.50;99.90;;;;;;5043669;28;20220;-82
2023/12/29 11:04:06;;;;;;;3.22;1.63;;;8.50;99.90;;;;;;5049095;28;20226;-84
2023/12/29 11:06:47;;;;;;;2.72;1.73;;;8.50;99.90;;;;;;5041381;28;20217;-84
2023/12/29 11:09:28;;;;;;;3.10;1.52;;;8.50;99.90;;;;;;5045414;28;20209;-83
2023/12/29 11:11:56;;;;;;;2.17;1.55;;;8.30;99.90;;;;;;5055261;28;20216;-83
2023/12/29 11:14:25;;;;;;;9.70;2.10;;;8.40;99.90;;;;;;5053264;28;20702;-83
2023/12/29 11:16:53;;;;;;;5.32;2.00;;;8.50;99.90;;;;;;5049722;28;20232;-83
2023/12/29 11:19:22;;;;;;;6.20;2.80;;;8.50;99.90;;;;;;5057937;28;20197;-83
2023/12/29 11:21:54;;;;;;;5.95;2.40;;;8.60;99.90;;;;;;5053026;28;20255;-85
2023/12/29 11:24:24;;;;;;;7.10;3.25;;;8.70;99.90;;;;;;5051228;28;20226;-83
2023/12/29 11:26:52;;;;;;;4.45;2.83;;;8.80;99.90;;;;;;5039179;28;20256;-83
2023/12/29 11:29:21;;;;;;;9.73;4.00;;;8.90;99.90;;;;;;5051194;28;20197;-82
2023/12/29 11:31:51;;;;;;;12.70;4.00;;;8.90;99.90;;;;;;5059815;28;20280;-82
2023/12/29 11:34:30;;;;;;;4.65;2.65;;;9.10;99.90;;;;;;5057393;28;20185;-83
2023/12/29 11:37:11;;;;;;;5.93;2.90;;;9.10;99.90;;;;;;5046910;28;20200;-83
2023/12/29 11:39:43;;;;;;;5.90;3.70;;;9.20;99.90;;;;;;5050386;28;20193;-83
2023/12/29 11:42:22;;;;;;;9.27;2.70;;;9.20;99.90;;;;;;5059003;28;20243;-82
2023/12/29 11:44:50;;;;;;;5.10;2.20;;;9.30;99.90;;;;;;5043263;28;20219;-84
2023/12/29 11:47:53;;;;;;;4.65;2.30;;;9.30;99.90;;;;;;5056326;28;20219;-83
2023/12/29 11:50:30;;;;;;;3.85;2.00;;;9.50;99.90;;;;;;5013709;28;20193;-84
2023/12/29 11:53:01;;;;;;;5.28;1.60;;;9.40;99.90;;;;;;5056151;28;20203;-83
2023/12/29 11:55:36;;;;;;;5.85;2.15;;;9.40;99.90;;;;;;5063317;28;20189;-82
2023/12/29 11:58:28;;;;;;;4.65;1.85;;;9.40;99.90;;;;;;5055348;28;20204;-84
2023/12/29 12:00:56;;;;;;;5.35;2.20;;;9.50;99.90;;;;;;5053139;28;20229;-84
2023/12/29 12:03:26;;;;;;;1.15;0.98;;;9.50;99.90;;;;;;5053683;28;20228;-83
2023/12/29 12:05:59;;;;;;;5.75;1.38;;;9.50;99.90;;;;;;5055130;28;20232;-83
2023/12/29 12:08:35;;;;;;;4.40;1.25;;;9.50;99.90;;;;;;5052867;28;20189;-83
2023/12/29 12:11:50;;;;;;;2.85;1.38;;;9.50;99.90;;;;;;5058615;28;20207;-84
2023/12/29 12:14:46;;;;;;;1.60;1.00;;;9.50;99.90;;;;;;5045370;28;20208;-82
2023/12/29 12:17:27;;;;;;;3.42;1.40;;;9.40;99.90;;;;;;5040045;28;20204;-83
2023/12/29 12:19:58;;;;;;;2.47;1.42;;;9.40;99.90;;;;;;5043845;28;20561;-82
2023/12/29 12:22:33;;;;;;;2.78;1.27;;;9.40;99.90;;;;;;5034128;28;20711;-84
2023/12/29 12:25:03;;;;;;;2.78;1.40;;;9.40;99.90;;;;;;5038526;28;20705;-83
2023/12/29 12:27:32;;;;;;;2.55;1.23;;;9.40;99.90;;;;;;5043631;28;20200;-82
2023/12/29 12:30:01;;;;;;;2.08;1.50;;;9.30;99.90;;;;;;5042063;28;20231;-84
2023/12/29 12:32:29;;;;;;;6.00;3.53;;;9.20;99.90;;;;;;5044223;28;20236;-84
2023/12/29 12:34:57;;;;;;;8.98;2.10;;;9.20;99.90;;;;;;5054026;28;20215;-83
2023/12/29 12:37:27;;;;;;;6.00;1.42;;;9.20;99.90;;;;;;5060519;28;20202;-85
2023/12/29 12:39:57;;;;;;;3.35;1.65;;;9.20;99.90;;;;;;5044455;28;20184;-84
2023/12/29 12:42:29;;;;;;;2.95;1.58;;;9.20;99.90;;;;;;5045142;28;20252;-85
2023/12/29 12:45:10;;;;;;;5.85;1.60;;;9.20;99.90;;;;;;5046350;28;20261;-84
2023/12/29 12:47:44;;;;;;;6.03;1.77;;;9.20;99.90;;;;;;5042784;28;20218;-84
2023/12/29 12:50:20;;;;;;;4.00;1.80;;;9.30;99.90;;;;;;5042428;28;20227;-84
2023/12/29 12:52:50;;;;;;;5.30;1.30;;;9.20;99.90;;;;;;5037206;28;20278;-84
2023/12/29 12:55:24;;;;;;;6.22;1.30;;;9.30;99.90;;;;;;5044626;28;20223;-84
2023/12/29 12:57:52;;;;;;;6.05;1.33;;;9.30;99.90;;;;;;5040117;28;20275;-84
2023/12/29 13:00:24;;;;;;;7.70;2.40;;;9.40;99.90;;;;;;5051901;28;20296;-84
2023/12/29 13:02:53;;;;;;;10.27;2.10;;;9.50;99.90;;;;;;5047352;28;20239;-83
2023/12/29 13:05:22;;;;;;;7.15;2.70;;;9.50;99.90;;;;;;5043978;28;20213;-83
2023/12/29 13:07:56;;;;;;;7.70;1.90;;;9.50;99.90;;;;;;5053312;28;20214;-84
2023/12/29 13:10:33;;;;;;;10.65;2.10;;;9.60;99.90;;;;;;5049824;28;20206;-84
2023/12/29 13:13:02;;;;;;;3.97;1.35;;;9.60;99.90;;;;;;5044707;28;20263;-83
2023/12/29 13:15:35;;;;;;;6.20;2.10;;;9.60;99.90;;;;;;5050696;28;20281;-84
2023/12/29 13:18:02;;;;;;;5.85;2.08;;;9.70;99.90;;;;;;5049714;28;20571;-84
2023/12/29 13:20:33;;;;;;;9.60;2.33;;;9.60;99.90;;;;;;5048175;28;20224;-83
2023/12/29 13:23:04;;;;;;;14.73;1.95;;;9.60;99.90;;;;;;5035523;28;20205;-84
2023/12/29 13:25:33;;;;;;;5.55;2.42;;;9.60;99.90;;;;;;5047120;28;20726;-83
2023/12/29 13:28:07;;;;;;;4.45;1.63;;;9.60;99.90;;;;;;5049933;28;20205;-83
2023/12/29 13:30:35;;;;;;;8.43;3.30;;;9.60;99.90;;;;;;5047749;28;20242;-84
2023/12/29 13:33:13;;;;;;;4.93;2.22;;;9.60;99.90;;;;;;5046847;28;20201;-83